createdAt,value
2017-11-14T00:01:02.886Z,6.10
2017-11-14T00:03:31.585Z,6.20
2017-11-14T00:05:59.117Z,6.20
2017-11-14T00:08:26.696Z,6.30
2017-11-14T00:10:54.278Z,6.30
2017-11-14T00:13:21.802Z,6.30
2017-11-14T00:15:50.077Z,6.30
2017-11-14T00:18:17.886Z,6.20
2017-11-14T00:20:45.440Z,6.30
2017-11-14T00:23:13.015Z,6.30
2017-11-14T00:25:40.510Z,6.30
2017-11-14T00:28:08.887Z,6.40
2017-11-14T00:30:37.202Z,6.40
2017-11-14T00:33:04.729Z,6.40
2017-11-14T00:35:35.131Z,6.40
2017-11-14T00:38:03.069Z,6.40
2017-11-14T00:40:31.497Z,6.40
2017-11-14T00:42:59.841Z,6.40
2017-11-14T00:45:27.790Z,6.40
2017-11-14T00:47:56.963Z,6.50
2017-11-14T00:50:24.556Z,6.50
2017-11-14T00:52:52.577Z,6.50
2017-11-14T00:55:21.113Z,6.30
2017-11-14T00:57:50.681Z,6.20
2017-11-14T01:00:18.514Z,6.30
2017-11-14T01:02:46.821Z,6.20
2017-11-14T01:05:14.416Z,6.20
2017-11-14T01:07:41.972Z,6.30
2017-11-14T01:10:10.956Z,6.30
2017-11-14T01:12:39.480Z,6.40
2017-11-14T01:15:07.584Z,6.30
2017-11-14T01:17:35.107Z,6.30
2017-11-14T01:20:02.665Z,6.40
2017-11-14T01:22:31.223Z,6.30
2017-11-14T01:24:58.717Z,6.30
2017-11-14T01:27:27.837Z,6.30
2017-11-14T01:29:56.163Z,6.30
2017-11-14T01:32:24.965Z,6.30
2017-11-14T01:34:52.543Z,6.20
2017-11-14T01:37:20.827Z,6.30
2017-11-14T01:39:49.098Z,6.40
2017-11-14T01:42:18.056Z,6.40
2017-11-14T01:44:45.553Z,6.40
2017-11-14T01:47:14.418Z,6.60
2017-11-14T01:49:41.959Z,6.60
2017-11-14T01:52:10.352Z,6.70
2017-11-14T01:54:37.860Z,6.60
2017-11-14T01:57:05.463Z,6.60
2017-11-14T01:59:32.960Z,6.50
2017-11-14T02:02:01.067Z,6.60
2017-11-14T02:04:29.258Z,6.50
2017-11-14T02:06:57.366Z,6.60
2017-11-14T02:09:24.975Z,6.50
2017-11-14T02:11:52.521Z,6.40
2017-11-14T02:14:20.053Z,6.40
2017-11-14T02:16:48.840Z,6.30
2017-11-14T02:19:16.386Z,6.30
2017-11-14T02:21:43.934Z,6.40
2017-11-14T02:24:11.476Z,6.50
2017-11-14T02:26:44.640Z,6.50
2017-11-14T02:29:12.154Z,6.50
2017-11-14T02:31:39.664Z,6.40
2017-11-14T02:34:07.189Z,6.50
2017-11-14T02:36:35.455Z,6.60
2017-11-14T02:39:09.798Z,6.60
2017-11-14T02:41:37.326Z,6.60
2017-11-14T02:44:04.828Z,6.60
2017-11-14T02:46:32.375Z,6.50
2017-11-14T02:48:59.964Z,6.60
2017-11-14T02:51:27.712Z,6.70
2017-11-14T02:53:55.257Z,6.50
2017-11-14T02:56:23.610Z,6.50
2017-11-14T02:58:51.554Z,6.50
2017-11-14T03:01:19.045Z,6.50
2017-11-14T03:03:47.319Z,6.50
2017-11-14T03:06:15.157Z,6.50
2017-11-14T03:08:42.706Z,6.50
2017-11-14T03:11:10.192Z,6.50
2017-11-14T03:13:38.715Z,6.50
2017-11-14T03:16:06.284Z,6.50
2017-11-14T03:18:33.785Z,6.50
2017-11-14T03:21:01.321Z,6.40
2017-11-14T03:23:28.892Z,6.40
2017-11-14T03:25:57.193Z,6.40
2017-11-14T03:28:24.724Z,6.50
2017-11-14T03:30:52.242Z,6.50
2017-11-14T03:33:19.778Z,6.50
2017-11-14T03:35:47.301Z,6.50
2017-11-14T03:38:14.830Z,6.50
2017-11-14T03:40:42.385Z,6.50
2017-11-14T03:43:09.896Z,6.40
2017-11-14T03:45:37.413Z,6.40
2017-11-14T03:48:04.983Z,6.40
2017-11-14T03:50:32.487Z,6.50
2017-11-14T03:52:59.988Z,6.40
2017-11-14T03:55:27.544Z,6.50
2017-11-14T03:57:55.796Z,6.50
2017-11-14T04:00:24.105Z,6.60
2017-11-14T04:02:51.640Z,6.60
2017-11-14T04:05:19.327Z,6.70
2017-11-14T04:07:46.816Z,6.60
2017-11-14T04:10:14.375Z,6.60
2017-11-14T04:12:41.882Z,6.60
2017-11-14T04:15:09.996Z,6.50
2017-11-14T04:17:37.501Z,6.50
2017-11-14T04:20:05.830Z,6.40
2017-11-14T04:22:33.330Z,6.40
2017-11-14T04:25:01.654Z,6.40
2017-11-14T04:27:29.153Z,6.40
2017-11-14T04:29:56.647Z,6.40
2017-11-14T04:32:24.890Z,6.40
2017-11-14T04:34:52.416Z,6.40
2017-11-14T04:37:19.902Z,6.40
2017-11-14T04:39:47.446Z,6.40
2017-11-14T04:42:14.940Z,6.50
2017-11-14T04:44:43.252Z,6.70
2017-11-14T04:47:10.781Z,6.60
2017-11-14T04:49:38.287Z,6.70
2017-11-14T04:52:05.819Z,6.70
2017-11-14T04:54:33.403Z,6.60
2017-11-14T04:57:00.902Z,6.70
2017-11-14T04:59:29.193Z,6.60
2017-11-14T05:01:57.242Z,6.60
2017-11-14T05:04:24.754Z,6.60
2017-11-14T05:06:52.272Z,6.60
2017-11-14T05:09:19.866Z,6.70
2017-11-14T05:11:47.367Z,6.80
2017-11-14T05:14:14.871Z,6.70
2017-11-14T05:16:43.434Z,6.70
2017-11-14T05:19:11.699Z,6.60
2017-11-14T05:21:40.042Z,6.60
2017-11-14T05:24:07.541Z,6.60
2017-11-14T05:26:35.059Z,6.70
2017-11-14T05:29:02.580Z,6.70
2017-11-14T05:31:31.392Z,6.70
2017-11-14T05:33:58.919Z,6.70
2017-11-14T05:36:26.950Z,6.80
2017-11-14T05:38:54.440Z,6.80
2017-11-14T05:41:22.161Z,6.80
2017-11-14T05:43:50.520Z,6.80
2017-11-14T05:46:19.372Z,6.70
2017-11-14T05:48:48.560Z,6.60
2017-11-14T05:51:16.890Z,6.60
2017-11-14T05:53:44.909Z,6.60
2017-11-14T05:56:12.419Z,6.60
2017-11-14T05:58:39.936Z,6.60
2017-11-14T06:01:07.848Z,6.70
2017-11-14T06:03:36.104Z,6.70
2017-11-14T06:06:03.626Z,6.60
2017-11-14T06:08:31.820Z,6.60
2017-11-14T06:11:02.857Z,6.60
2017-11-14T06:13:31.586Z,6.60
2017-11-14T06:15:59.546Z,6.50
2017-11-14T06:18:28.745Z,6.40
2017-11-14T06:20:57.153Z,6.50
2017-11-14T06:23:24.690Z,6.60
2017-11-14T06:25:52.208Z,6.60
2017-11-14T06:28:20.529Z,6.70
2017-11-14T06:30:48.016Z,6.70
2017-11-14T06:33:15.580Z,6.70
2017-11-14T06:35:43.091Z,6.70
2017-11-14T06:38:10.590Z,6.60
2017-11-14T06:40:38.126Z,6.60
2017-11-14T06:43:05.669Z,6.70
2017-11-14T06:45:33.167Z,6.60
2017-11-14T06:48:00.701Z,6.60
2017-11-14T06:50:28.803Z,6.50
2017-11-14T06:52:57.904Z,6.60
2017-11-14T06:55:25.444Z,6.60
2017-11-14T06:57:52.972Z,6.50
2017-11-14T07:00:20.585Z,6.50
2017-11-14T07:02:48.142Z,6.60
2017-11-14T07:05:15.677Z,6.60
2017-11-14T07:07:43.237Z,6.50
2017-11-14T07:10:10.743Z,6.60
2017-11-14T07:12:38.293Z,6.60
2017-11-14T07:15:06.647Z,6.90
2017-11-14T07:17:35.668Z,6.80
2017-11-14T07:20:04.133Z,7.00
2017-11-14T07:22:31.671Z,7.00
2017-11-14T07:24:59.210Z,6.90
2017-11-14T07:27:26.702Z,6.90
2017-11-14T07:29:54.191Z,6.90
2017-11-14T07:32:21.712Z,6.90
2017-11-14T07:34:49.238Z,7.00
2017-11-14T07:37:16.820Z,7.10
2017-11-14T07:39:44.349Z,7.00
2017-11-14T07:42:11.902Z,7.00
2017-11-14T07:44:39.422Z,6.90
2017-11-14T07:47:06.945Z,7.00
2017-11-14T07:49:34.481Z,7.10
2017-11-14T07:52:02.568Z,7.10
2017-11-14T07:54:30.142Z,7.20
2017-11-14T07:56:57.650Z,7.20
2017-11-14T07:59:25.969Z,7.30
2017-11-14T08:01:53.490Z,7.30
2017-11-14T08:04:21.769Z,7.20
2017-11-14T08:06:50.049Z,7.30
2017-11-14T08:09:18.338Z,7.10
2017-11-14T08:11:45.950Z,7.00
2017-11-14T08:14:13.442Z,7.10
2017-11-14T08:16:41.754Z,7.00
2017-11-14T08:19:09.280Z,7.00
2017-11-14T08:21:36.812Z,7.10
2017-11-14T08:24:04.338Z,7.20
2017-11-14T08:26:31.848Z,7.10
2017-11-14T08:28:59.375Z,7.00
2017-11-14T08:31:26.885Z,7.20
2017-11-14T08:33:54.436Z,7.20
2017-11-14T08:36:21.958Z,7.20
2017-11-14T08:38:49.459Z,7.40
2017-11-14T08:41:17.034Z,7.30
2017-11-14T08:43:44.564Z,7.40
2017-11-14T08:46:12.097Z,7.50
2017-11-14T08:48:39.632Z,7.40
2017-11-14T08:51:07.181Z,7.40
2017-11-14T08:53:34.705Z,7.40
2017-11-14T08:56:02.966Z,7.30
2017-11-14T08:58:31.275Z,7.30
2017-11-14T09:00:58.792Z,7.30
2017-11-14T09:03:26.335Z,7.30
2017-11-14T09:05:53.860Z,7.30
2017-11-14T09:08:21.378Z,7.10
2017-11-14T09:10:49.658Z,7.10
2017-11-14T09:13:17.939Z,7.20
2017-11-14T09:15:46.241Z,7.30
2017-11-14T09:18:13.766Z,7.30
2017-11-14T09:20:41.303Z,7.30
2017-11-14T09:23:08.829Z,7.40
2017-11-14T09:25:36.408Z,7.50
2017-11-14T09:28:03.961Z,7.40
2017-11-14T09:30:31.576Z,7.30
2017-11-14T09:32:59.874Z,7.40
2017-11-14T09:35:28.539Z,7.40
2017-11-14T09:37:56.883Z,7.50
2017-11-14T09:40:24.458Z,7.50
2017-11-14T09:42:52.277Z,7.70
2017-11-14T09:45:19.938Z,7.60
2017-11-14T09:47:47.497Z,7.60
2017-11-14T09:50:15.839Z,7.60
2017-11-14T09:52:44.228Z,7.70
2017-11-14T09:55:11.763Z,7.70
2017-11-14T09:57:39.430Z,7.70
2017-11-14T10:00:07.831Z,7.70
2017-11-14T10:02:36.033Z,7.70
2017-11-14T10:05:03.791Z,7.70
2017-11-14T10:07:31.350Z,7.70
2017-11-14T10:09:58.884Z,7.70
2017-11-14T10:12:27.305Z,7.90
2017-11-14T10:14:54.869Z,7.90
2017-11-14T10:17:22.497Z,8.00
2017-11-14T10:19:50.069Z,7.90
2017-11-14T10:22:17.737Z,8.00
2017-11-14T10:24:45.307Z,8.00
2017-11-14T10:27:12.829Z,8.00
2017-11-14T10:29:40.424Z,8.10
2017-11-14T10:32:07.991Z,8.10
2017-11-14T10:34:35.590Z,8.20
2017-11-14T10:37:03.184Z,8.10
2017-11-14T10:39:30.724Z,8.20
2017-11-14T10:41:58.324Z,8.10
2017-11-14T10:44:25.903Z,8.10
2017-11-14T10:46:53.404Z,8.20
2017-11-14T10:49:20.983Z,8.20
2017-11-14T10:51:48.488Z,8.10
2017-11-14T10:54:16.039Z,8.10
2017-11-14T10:56:43.613Z,8.20
2017-11-14T10:59:11.131Z,8.30
2017-11-14T11:01:39.562Z,8.30
2017-11-14T11:04:07.113Z,8.20
2017-11-14T11:06:34.626Z,8.30
2017-11-14T11:09:02.222Z,8.30
2017-11-14T11:11:29.765Z,8.40
2017-11-14T11:13:57.278Z,8.50
2017-11-14T11:16:33.536Z,8.50
2017-11-14T11:19:01.848Z,8.40
2017-11-14T11:21:29.418Z,8.40
2017-11-14T11:23:57.033Z,8.40
2017-11-14T11:26:25.416Z,8.40
2017-11-14T11:28:53.791Z,8.40
2017-11-14T11:31:21.376Z,8.40
2017-11-14T11:33:48.992Z,8.30
2017-11-14T11:36:16.505Z,8.30
2017-11-14T11:38:44.724Z,8.20
2017-11-14T11:41:12.653Z,8.20
2017-11-14T11:43:41.187Z,8.20
2017-11-14T11:46:09.104Z,8.20
2017-11-14T11:48:36.637Z,8.20
2017-11-14T11:51:04.205Z,8.30
2017-11-14T11:53:31.780Z,8.30
2017-11-14T11:55:59.356Z,8.40
2017-11-14T11:58:26.944Z,8.30
2017-11-14T12:00:54.562Z,8.30
2017-11-14T12:03:22.124Z,8.30
2017-11-14T12:05:49.840Z,8.40
2017-11-14T12:08:18.167Z,8.50
2017-11-14T12:10:45.715Z,8.50
2017-11-14T12:13:13.281Z,8.50
2017-11-14T12:15:40.872Z,8.50
2017-11-14T12:18:08.439Z,8.40
2017-11-14T12:20:35.971Z,8.50
2017-11-14T12:23:03.567Z,8.50
2017-11-14T12:25:31.259Z,8.40
2017-11-14T12:27:58.888Z,8.40
2017-11-14T12:30:26.419Z,8.40
2017-11-14T12:32:53.978Z,8.40
2017-11-14T12:35:21.640Z,8.40
2017-11-14T12:37:49.163Z,8.50
2017-11-14T12:40:16.704Z,8.50
2017-11-14T12:42:44.278Z,8.50
2017-11-14T12:45:12.638Z,8.60
2017-11-14T12:47:40.141Z,8.60
2017-11-14T12:50:07.712Z,8.70
2017-11-14T12:52:35.258Z,8.60
2017-11-14T12:55:02.820Z,8.60
2017-11-14T12:57:30.319Z,8.60
2017-11-14T12:59:57.864Z,8.60
2017-11-14T13:02:25.366Z,8.60
2017-11-14T13:04:52.866Z,8.50
2017-11-14T13:07:20.413Z,8.50
2017-11-14T13:09:47.954Z,8.50
2017-11-14T13:12:15.532Z,8.40
2017-11-14T13:14:43.201Z,8.50
2017-11-14T13:17:10.854Z,8.50
2017-11-14T13:19:38.497Z,8.60
2017-11-14T13:22:06.418Z,8.60
2017-11-14T13:24:33.928Z,8.70
2017-11-14T13:27:01.474Z,8.70
2017-11-14T13:29:29.174Z,8.80
2017-11-14T13:31:56.750Z,8.80
2017-11-14T13:34:24.795Z,8.90
2017-11-14T13:36:52.433Z,8.90
2017-11-14T13:39:20.745Z,8.80
2017-11-14T13:41:48.277Z,8.80
2017-11-14T13:44:15.804Z,8.80
2017-11-14T13:46:43.297Z,8.90
2017-11-14T13:49:10.834Z,8.90
2017-11-14T13:51:39.116Z,8.90
2017-11-14T13:54:07.397Z,8.90
2017-11-14T13:56:34.936Z,8.90
2017-11-14T13:59:02.441Z,8.90
2017-11-14T14:01:29.969Z,8.80
2017-11-14T14:03:57.470Z,8.80
2017-11-14T14:06:25.003Z,8.80
2017-11-14T14:08:52.565Z,8.70
2017-11-14T14:11:20.100Z,8.60
2017-11-14T14:13:47.622Z,8.70
2017-11-14T14:16:15.123Z,8.80
2017-11-14T14:18:42.713Z,8.80
2017-11-14T14:21:10.225Z,8.70
2017-11-14T14:23:37.722Z,8.80
2017-11-14T14:26:05.254Z,8.70
2017-11-14T14:28:36.262Z,8.70
2017-11-14T14:31:03.843Z,8.70
2017-11-14T14:33:31.362Z,8.70
2017-11-14T14:35:58.934Z,8.70
2017-11-14T14:38:26.436Z,8.70
2017-11-14T14:40:53.970Z,8.80
2017-11-14T14:43:21.562Z,8.80
2017-11-14T14:45:49.145Z,8.80
2017-11-14T14:48:16.672Z,8.90
2017-11-14T14:50:44.222Z,8.90
2017-11-14T14:53:11.776Z,8.80
2017-11-14T14:55:39.330Z,8.80
2017-11-14T14:58:06.886Z,8.90
2017-11-14T15:00:34.442Z,8.80
2017-11-14T15:03:01.931Z,8.80
2017-11-14T15:05:30.349Z,8.90
2017-11-14T15:07:57.848Z,8.90
2017-11-14T15:10:25.382Z,8.90
2017-11-14T15:12:52.882Z,9.00
2017-11-14T15:15:20.573Z,8.90
2017-11-14T15:17:48.060Z,8.90
2017-11-14T15:20:15.598Z,8.70
2017-11-14T15:22:43.131Z,8.70
2017-11-14T15:25:10.685Z,8.70
2017-11-14T15:27:38.965Z,8.70
2017-11-14T15:30:07.376Z,8.70
2017-11-14T15:32:35.224Z,8.80
2017-11-14T15:35:02.807Z,8.70
2017-11-14T15:37:30.357Z,8.50
2017-11-14T15:39:57.881Z,8.50
2017-11-14T15:42:25.416Z,8.40
2017-11-14T15:44:52.937Z,8.40
2017-11-14T15:47:20.459Z,8.40
2017-11-14T15:49:47.990Z,8.40
2017-11-14T15:52:15.528Z,8.30
2017-11-14T15:54:43.267Z,8.30
2017-11-14T15:57:10.779Z,8.40
2017-11-14T15:59:38.395Z,8.40
2017-11-14T16:02:05.941Z,8.40
2017-11-14T16:04:33.522Z,8.40
2017-11-14T16:07:01.180Z,8.40
2017-11-14T16:09:28.702Z,8.30
2017-11-14T16:11:57.003Z,8.00
2017-11-14T16:14:24.563Z,8.00
2017-11-14T16:16:53.082Z,8.00
2017-11-14T16:19:20.627Z,8.00
2017-11-14T16:21:49.096Z,8.00
2017-11-14T16:24:17.519Z,8.00
2017-11-14T16:26:47.597Z,8.00
2017-11-14T16:29:15.453Z,7.90
2017-11-14T16:31:44.579Z,7.90
2017-11-14T16:34:13.020Z,7.90
2017-11-14T16:36:42.271Z,7.80
2017-11-14T16:39:09.918Z,7.80
2017-11-14T16:41:38.387Z,7.70
2017-11-14T16:44:06.642Z,7.80
2017-11-14T16:46:34.194Z,7.80
2017-11-14T16:49:02.530Z,7.90
2017-11-14T16:51:30.072Z,7.80
2017-11-14T16:53:57.650Z,7.80
2017-11-14T16:56:26.706Z,7.80
2017-11-14T16:58:54.625Z,7.80
2017-11-14T17:01:22.637Z,7.80
2017-11-14T17:03:50.364Z,7.70
2017-11-14T17:06:18.531Z,7.70
2017-11-14T17:08:48.474Z,7.70
2017-11-14T17:11:16.789Z,7.80
2017-11-14T17:13:44.517Z,7.70
2017-11-14T17:16:13.679Z,7.90
2017-11-14T17:18:41.792Z,7.90
2017-11-14T17:21:09.355Z,7.80
2017-11-14T17:23:37.154Z,7.90
2017-11-14T17:26:05.093Z,7.90
2017-11-14T17:28:32.866Z,8.00
2017-11-14T17:31:00.634Z,7.90
2017-11-14T17:33:28.320Z,7.80
2017-11-14T17:35:55.896Z,7.80
2017-11-14T17:38:23.709Z,7.80
2017-11-14T17:40:51.431Z,7.90
2017-11-14T17:43:20.027Z,8.00
2017-11-14T17:45:48.764Z,8.00
2017-11-14T17:48:16.315Z,8.00
2017-11-14T17:50:43.876Z,8.10
2017-11-14T17:53:11.394Z,8.00
2017-11-14T17:55:40.082Z,8.00
2017-11-14T17:58:08.361Z,7.90
2017-11-14T18:00:36.680Z,7.80
2017-11-14T18:03:04.483Z,7.80
2017-11-14T18:05:34.024Z,7.70
2017-11-14T18:08:02.366Z,7.70
2017-11-14T18:10:29.948Z,7.80
2017-11-14T18:12:57.468Z,7.70
2017-11-14T18:15:25.719Z,7.80
2017-11-14T18:17:53.291Z,7.70
2017-11-14T18:20:20.909Z,7.60
2017-11-14T18:22:51.647Z,7.30
2017-11-14T18:25:19.221Z,7.30
2017-11-14T18:27:47.061Z,7.30
2017-11-14T18:30:15.957Z,7.00
2017-11-14T18:32:44.473Z,7.00
2017-11-14T18:35:14.031Z,7.00
2017-11-14T18:37:41.552Z,6.90
2017-11-14T18:40:09.574Z,6.90
2017-11-14T18:42:37.085Z,6.80
2017-11-14T18:45:05.566Z,6.70
2017-11-14T18:47:33.124Z,6.70
2017-11-14T18:50:00.863Z,6.70
2017-11-14T18:52:28.667Z,6.70
2017-11-14T18:54:56.258Z,6.70
2017-11-14T18:57:24.582Z,6.80
2017-11-14T18:59:52.966Z,6.70
2017-11-14T19:02:20.577Z,6.70
2017-11-14T19:04:48.865Z,6.60
2017-11-14T19:07:17.270Z,6.70
2017-11-14T19:09:44.820Z,6.70
2017-11-14T19:12:12.383Z,6.80
2017-11-14T19:14:39.932Z,6.80
2017-11-14T19:17:07.933Z,6.80
2017-11-14T19:19:36.286Z,6.80
2017-11-14T19:22:03.896Z,6.70
2017-11-14T19:24:32.865Z,6.60
2017-11-14T19:27:02.680Z,6.60
2017-11-14T19:29:30.977Z,6.60
2017-11-14T19:31:58.695Z,6.50
2017-11-14T19:34:26.826Z,6.40
2017-11-14T19:36:56.520Z,6.60
2017-11-14T19:39:24.331Z,6.60
2017-11-14T19:41:51.859Z,6.60
2017-11-14T19:44:19.866Z,6.60
2017-11-14T19:46:47.817Z,6.50
2017-11-14T19:49:16.385Z,6.60
2017-11-14T19:51:44.776Z,6.60
2017-11-14T19:54:13.111Z,6.70
2017-11-14T19:56:41.283Z,6.70
2017-11-14T19:59:09.117Z,6.70
2017-11-14T20:01:36.767Z,6.70
2017-11-14T20:04:05.431Z,6.70
2017-11-14T20:06:34.315Z,6.80
2017-11-14T20:09:01.903Z,6.80
2017-11-14T20:11:30.708Z,6.70
2017-11-14T20:13:58.411Z,6.70
2017-11-14T20:16:26.817Z,6.70
2017-11-14T20:18:54.522Z,6.80
2017-11-14T20:21:22.167Z,6.70
2017-11-14T20:23:49.723Z,6.70
2017-11-14T20:26:17.394Z,6.60
2017-11-14T20:28:44.946Z,6.60
2017-11-14T20:31:12.888Z,6.60
2017-11-14T20:33:40.548Z,6.60
2017-11-14T20:36:08.269Z,6.60
2017-11-14T20:38:35.879Z,6.70
2017-11-14T20:41:04.162Z,6.60
2017-11-14T20:43:35.637Z,6.60
2017-11-14T20:46:03.884Z,6.60
2017-11-14T20:48:32.644Z,6.80
2017-11-14T20:51:00.351Z,6.80
2017-11-14T20:53:28.931Z,6.60
2017-11-14T20:55:57.726Z,6.60
2017-11-14T20:58:26.206Z,6.50
2017-11-14T21:00:54.546Z,6.50
2017-11-14T21:03:23.216Z,6.60
2017-11-14T21:05:50.792Z,6.50
2017-11-14T21:08:18.433Z,6.50
2017-11-14T21:10:46.752Z,6.30
2017-11-14T21:13:15.084Z,6.20
2017-11-14T21:15:43.097Z,6.20
2017-11-14T21:18:12.263Z,6.20
2017-11-14T21:20:40.826Z,6.20
2017-11-14T21:23:09.475Z,6.20
2017-11-14T21:25:38.893Z,6.10
2017-11-14T21:28:06.500Z,6.10
2017-11-14T21:30:34.104Z,6.20
2017-11-14T21:33:01.705Z,6.20
2017-11-14T21:35:30.289Z,6.20
2017-11-14T21:37:57.891Z,6.10
2017-11-14T21:40:25.433Z,6.20
2017-11-14T21:42:52.966Z,6.10
2017-11-14T21:45:21.531Z,6.00
2017-11-14T21:47:49.094Z,6.00
2017-11-14T21:50:16.661Z,5.90
2017-11-14T21:52:44.582Z,5.90
2017-11-14T21:55:12.909Z,5.80
2017-11-14T21:57:40.578Z,5.80
2017-11-14T22:00:09.874Z,5.80
2017-11-14T22:02:37.373Z,5.70
2017-11-14T22:05:07.611Z,5.70
2017-11-14T22:07:37.012Z,5.70
2017-11-14T22:10:05.531Z,5.70
2017-11-14T22:12:33.182Z,5.70
2017-11-14T22:15:00.750Z,5.80
2017-11-14T22:17:28.883Z,5.90
2017-11-14T22:19:57.377Z,5.80
2017-11-14T22:22:26.065Z,5.70
2017-11-14T22:24:54.836Z,5.80
2017-11-14T22:27:22.515Z,5.80
2017-11-14T22:29:51.410Z,5.80
2017-11-14T22:32:24.538Z,5.90
2017-11-14T22:34:54.284Z,5.90
2017-11-14T22:37:23.597Z,6.00
2017-11-14T22:39:56.012Z,5.80
2017-11-14T22:42:24.465Z,5.80
2017-11-14T22:45:04.108Z,5.60
2017-11-14T22:47:31.745Z,5.70
2017-11-14T22:49:59.261Z,5.80
2017-11-14T22:52:26.880Z,5.80
2017-11-14T22:54:54.457Z,5.70
2017-11-14T22:57:22.005Z,5.60
2017-11-14T22:59:50.335Z,5.40
2017-11-14T23:02:17.969Z,5.40
2017-11-14T23:04:45.525Z,5.40
2017-11-14T23:07:13.083Z,5.30
2017-11-14T23:09:40.774Z,5.30
2017-11-14T23:12:08.295Z,5.30
2017-11-14T23:14:35.850Z,5.30
2017-11-14T23:17:04.163Z,5.40
2017-11-14T23:19:31.699Z,5.40
2017-11-14T23:21:59.267Z,5.30
2017-11-14T23:24:26.773Z,5.30
2017-11-14T23:26:54.335Z,5.30
2017-11-14T23:29:22.006Z,5.20
2017-11-14T23:31:50.359Z,5.30
2017-11-14T23:34:17.913Z,5.30
2017-11-14T23:36:45.436Z,5.30
2017-11-14T23:39:12.994Z,5.30
2017-11-14T23:41:40.536Z,5.40
2017-11-14T23:44:08.836Z,5.50
2017-11-14T23:46:36.484Z,5.50
2017-11-14T23:49:04.161Z,5.40
2017-11-14T23:51:31.707Z,5.30
2017-11-14T23:53:59.327Z,5.40
2017-11-14T23:56:26.861Z,5.50
2017-11-14T23:58:54.485Z,5.50
